createdAt,value
2023-04-06T00:02:20.192Z,-0.50
2023-04-06T00:04:48.134Z,-0.50
2023-04-06T00:07:16.400Z,-0.50
2023-04-06T00:09:44.321Z,-0.60
2023-04-06T00:12:12.274Z,-0.50
2023-04-06T00:14:41.460Z,-0.50
2023-04-06T00:17:09.531Z,-0.60
2023-04-06T00:19:38.833Z,-0.70
2023-04-06T00:22:06.756Z,-0.70
2023-04-06T00:24:34.697Z,-0.70
2023-04-06T00:27:02.697Z,-0.80
2023-04-06T00:29:30.790Z,-0.80
2023-04-06T00:31:58.814Z,-0.70
2023-04-06T00:34:26.779Z,-0.70
2023-04-06T00:36:56.008Z,-0.80
2023-04-06T00:39:24.021Z,-0.80
2023-04-06T00:41:54.029Z,-0.80
2023-04-06T00:44:22.039Z,-0.80
2023-04-06T00:46:50.092Z,-0.80
2023-04-06T00:49:19.022Z,-0.90
2023-04-06T00:51:47.168Z,-0.90
2023-04-06T00:54:17.942Z,-0.90
2023-04-06T00:56:46.078Z,-0.90
2023-04-06T00:59:14.453Z,-0.90
2023-04-06T01:01:42.851Z,-0.90
2023-04-06T01:04:26.097Z,-1.00
2023-04-06T01:06:55.444Z,-1.00
2023-04-06T01:09:31.406Z,-0.90
2023-04-06T01:12:03.099Z,-0.90
2023-04-06T01:14:32.848Z,-1.00
2023-04-06T01:17:02.501Z,-1.00
2023-04-06T01:19:33.322Z,-1.00
2023-04-06T01:22:01.729Z,-1.00
2023-04-06T01:24:33.857Z,-1.00
2023-04-06T01:27:17.617Z,-1.10
2023-04-06T01:29:51.360Z,-1.10
2023-04-06T01:32:34.028Z,-1.10
2023-04-06T01:35:02.065Z,-1.10
2023-04-06T01:37:33.495Z,-1.30
2023-04-06T01:40:06.956Z,-1.30
2023-04-06T01:42:43.361Z,-1.40
2023-04-06T01:45:13.402Z,-1.40
2023-04-06T01:47:42.049Z,-1.50
2023-04-06T01:50:11.113Z,-1.50
2023-04-06T01:52:44.249Z,-1.60
2023-04-06T01:55:14.741Z,-1.60
2023-04-06T01:57:59.618Z,-1.50
2023-04-06T02:00:36.299Z,-1.40
2023-04-06T02:03:04.691Z,-1.50
2023-04-06T02:05:38.683Z,-1.50
2023-04-06T02:08:17.655Z,-1.60
2023-04-06T02:10:46.893Z,-1.60
2023-04-06T02:13:25.126Z,-1.70
2023-04-06T02:15:54.764Z,-1.70
2023-04-06T02:18:23.388Z,-1.60
2023-04-06T02:20:51.312Z,-1.60
2023-04-06T02:23:19.280Z,-1.60
2023-04-06T02:25:48.517Z,-1.60
2023-04-06T02:28:16.623Z,-1.70
2023-04-06T02:30:44.626Z,-1.70
2023-04-06T02:33:13.416Z,-1.70
2023-04-06T02:35:46.700Z,-1.70
2023-04-06T02:38:14.926Z,-1.80
2023-04-06T02:40:42.792Z,-1.80
2023-04-06T02:43:20.785Z,-1.80
2023-04-06T02:45:50.497Z,-1.80
2023-04-06T02:48:20.368Z,-1.80
2023-04-06T02:50:48.243Z,-1.80
2023-04-06T02:53:16.298Z,-1.80
2023-04-06T02:55:44.338Z,-1.80
2023-04-06T02:58:12.304Z,-1.90
2023-04-06T03:00:49.367Z,-1.90
2023-04-06T03:03:17.517Z,-1.90
2023-04-06T03:05:47.130Z,-2.00
2023-04-06T03:08:16.432Z,-1.90
2023-04-06T03:10:46.450Z,-2.00
2023-04-06T03:13:16.233Z,-1.90
2023-04-06T03:15:51.730Z,-1.90
2023-04-06T03:18:24.802Z,-2.00
2023-04-06T03:20:55.189Z,-1.90
2023-04-06T03:23:26.530Z,-1.90
2023-04-06T03:25:59.314Z,-1.80
2023-04-06T03:28:27.476Z,-1.80
2023-04-06T03:31:00.597Z,-1.80
2023-04-06T03:33:54.748Z,-1.90
2023-04-06T03:36:27.615Z,-2.00
2023-04-06T03:38:57.862Z,-2.00
2023-04-06T03:41:26.020Z,-2.00
2023-04-06T03:44:02.830Z,-2.00
2023-04-06T03:46:32.443Z,-2.00
2023-04-06T03:49:01.429Z,-1.90
2023-04-06T03:51:29.797Z,-1.90
2023-04-06T03:53:57.747Z,-2.00
2023-04-06T03:56:25.682Z,-2.00
2023-04-06T03:58:55.789Z,-2.00
2023-04-06T04:01:24.029Z,-2.00
2023-04-06T04:03:53.591Z,-2.00
2023-04-06T04:06:21.587Z,-2.00
2023-04-06T04:08:49.542Z,-2.10
2023-04-06T04:11:17.757Z,-2.10
2023-04-06T04:13:49.309Z,-2.10
2023-04-06T04:16:17.457Z,-2.00
2023-04-06T04:18:46.419Z,-2.00
2023-04-06T04:21:15.872Z,-2.10
2023-04-06T04:23:43.799Z,-2.10
2023-04-06T04:26:11.785Z,-2.10
2023-04-06T04:28:39.910Z,-2.10
2023-04-06T04:31:07.848Z,-2.20
2023-04-06T04:33:36.950Z,-2.10
2023-04-06T04:36:11.211Z,-2.10
2023-04-06T04:38:44.498Z,-2.00
2023-04-06T04:41:12.728Z,-2.00
2023-04-06T04:43:44.008Z,-2.00
2023-04-06T04:46:13.702Z,-1.90
2023-04-06T04:48:44.651Z,-1.90
2023-04-06T04:51:12.595Z,-1.90
2023-04-06T04:53:53.643Z,-1.90
2023-04-06T04:56:26.292Z,-1.90
2023-04-06T04:58:59.514Z,-1.90
2023-04-06T05:01:35.677Z,-1.90
2023-04-06T05:04:08.752Z,-1.80
2023-04-06T05:06:36.600Z,-1.80
2023-04-06T05:09:06.161Z,-1.60
2023-04-06T05:11:34.907Z,-1.30
2023-04-06T05:14:02.935Z,-1.00
2023-04-06T05:16:31.175Z,-0.80
2023-04-06T05:18:59.108Z,-0.60
2023-04-06T05:21:37.418Z,-0.50
2023-04-06T05:24:09.773Z,-0.30
2023-04-06T05:26:39.624Z,-0.20
2023-04-06T05:29:13.951Z,-0.10
2023-04-06T05:31:42.587Z,0.30
2023-04-06T05:34:11.516Z,0.70
2023-04-06T05:36:41.247Z,1.10
2023-04-06T05:39:19.753Z,1.40
2023-04-06T05:41:51.801Z,1.90
2023-04-06T05:44:30.309Z,2.20
2023-04-06T05:47:07.570Z,2.70
2023-04-06T05:49:36.706Z,2.90
2023-04-06T05:52:07.647Z,3.30
2023-04-06T05:54:37.500Z,3.10
2023-04-06T05:57:05.778Z,3.10
2023-04-06T05:59:33.775Z,3.60
2023-04-06T06:02:02.677Z,4.20
2023-04-06T06:04:34.164Z,4.50
2023-04-06T06:07:02.304Z,5.10
2023-04-06T06:09:43.804Z,5.40
2023-04-06T06:12:20.903Z,6.00
2023-04-06T06:14:51.040Z,6.30
2023-04-06T06:17:20.029Z,6.40
2023-04-06T06:19:49.721Z,6.80
2023-04-06T06:22:18.080Z,6.80
2023-04-06T06:24:50.735Z,7.10
2023-04-06T06:27:21.569Z,7.70
2023-04-06T06:29:50.074Z,7.80
2023-04-06T06:32:18.480Z,8.10
2023-04-06T06:34:50.138Z,8.20
2023-04-06T06:37:19.256Z,8.00
2023-04-06T06:39:48.738Z,8.80
2023-04-06T06:42:16.678Z,8.50
2023-04-06T06:45:03.046Z,8.90
2023-04-06T06:47:30.976Z,9.00
2023-04-06T06:49:58.937Z,9.40
2023-04-06T06:52:26.853Z,10.00
2023-04-06T06:54:57.705Z,10.40
2023-04-06T06:57:25.797Z,11.20
2023-04-06T06:59:54.417Z,12.10
2023-04-06T07:02:23.461Z,12.00
2023-04-06T07:04:51.500Z,10.40
2023-04-06T07:07:19.866Z,10.40
2023-04-06T07:09:47.789Z,12.10
2023-04-06T07:12:17.556Z,13.70
2023-04-06T07:14:45.540Z,15.20
2023-04-06T07:17:14.701Z,14.80
2023-04-06T07:19:43.006Z,15.20
2023-04-06T07:22:11.469Z,15.90
2023-04-06T07:24:39.444Z,14.70
2023-04-06T07:27:08.136Z,14.50
2023-04-06T07:29:37.610Z,14.30
2023-04-06T07:32:05.552Z,14.40
2023-04-06T07:34:34.963Z,16.50
2023-04-06T07:37:04.231Z,16.40
2023-04-06T07:39:32.630Z,14.90
2023-04-06T07:42:01.432Z,15.70
2023-04-06T07:44:29.409Z,14.50
2023-04-06T07:46:59.305Z,15.40
2023-04-06T07:49:27.863Z,15.80
2023-04-06T07:51:56.833Z,17.30
2023-04-06T07:54:24.927Z,19.10
2023-04-06T07:56:52.772Z,19.10
2023-04-06T07:59:21.130Z,19.00
2023-04-06T08:01:49.136Z,18.00
2023-04-06T08:04:18.445Z,18.50
2023-04-06T08:06:46.557Z,18.80
2023-04-06T08:09:14.602Z,18.50
2023-04-06T08:11:42.626Z,18.30
2023-04-06T08:14:11.308Z,19.40
2023-04-06T08:16:39.374Z,18.00
2023-04-06T08:19:08.405Z,17.90
2023-04-06T08:21:37.767Z,18.10
2023-04-06T08:24:07.263Z,19.20
2023-04-06T08:26:36.884Z,19.60
2023-04-06T08:29:05.175Z,20.80
2023-04-06T08:31:33.590Z,21.80
2023-04-06T08:34:04.146Z,22.50
2023-04-06T08:36:32.450Z,22.30
2023-04-06T08:39:02.698Z,22.30
2023-04-06T08:41:30.659Z,21.50
2023-04-06T08:44:00.236Z,19.90
2023-04-06T08:46:30.842Z,20.70
2023-04-06T08:49:00.081Z,22.00
2023-04-06T08:51:29.592Z,20.60
2023-04-06T08:53:59.044Z,21.10
2023-04-06T08:56:30.419Z,22.00
2023-04-06T08:58:59.191Z,21.30
2023-04-06T09:01:30.509Z,23.20
2023-04-06T09:04:01.261Z,22.80
2023-04-06T09:06:29.628Z,21.80
2023-04-06T09:08:57.657Z,22.80
2023-04-06T09:11:25.722Z,23.40
2023-04-06T09:13:56.754Z,24.60
2023-04-06T09:16:25.118Z,24.10
2023-04-06T09:18:53.202Z,22.70
2023-04-06T09:21:24.680Z,22.20
2023-04-06T09:24:01.531Z,22.70
2023-04-06T09:26:29.594Z,22.80
2023-04-06T09:29:02.110Z,23.40
2023-04-06T09:31:33.871Z,22.70
2023-04-06T09:34:02.799Z,22.60
2023-04-06T09:36:34.166Z,23.10
2023-04-06T09:39:03.681Z,23.50
2023-04-06T09:41:33.105Z,24.10
2023-04-06T09:44:06.899Z,26.40
2023-04-06T09:46:54.936Z,27.40
2023-04-06T09:49:29.956Z,25.20
2023-04-06T09:52:00.980Z,27.20
2023-04-06T09:54:31.529Z,25.50
2023-04-06T09:57:04.492Z,24.80
2023-04-06T09:59:40.502Z,24.00
2023-04-06T10:02:16.557Z,23.50
2023-04-06T10:04:50.636Z,23.30
2023-04-06T10:07:19.599Z,23.30
2023-04-06T10:09:48.652Z,22.10
2023-04-06T10:12:18.087Z,22.70
2023-04-06T10:14:47.365Z,23.90
2023-04-06T10:17:15.308Z,22.90
2023-04-06T10:19:51.652Z,22.60
2023-04-06T10:22:24.823Z,22.40
2023-04-06T10:24:52.730Z,19.50
2023-04-06T10:27:30.035Z,19.50
2023-04-06T10:30:04.172Z,19.90
2023-04-06T10:32:37.891Z,19.80
2023-04-06T10:35:10.454Z,19.50
2023-04-06T10:37:55.753Z,18.50
2023-04-06T10:40:27.377Z,19.20
2023-04-06T10:42:55.753Z,19.10
2023-04-06T10:45:27.370Z,18.30
2023-04-06T10:47:56.007Z,17.60
2023-04-06T10:50:24.590Z,17.20
2023-04-06T10:53:01.721Z,16.50
2023-04-06T10:55:31.208Z,16.00
2023-04-06T10:57:59.160Z,16.40
2023-04-06T11:00:39.401Z,17.60
2023-04-06T11:03:15.264Z,19.50
2023-04-06T11:05:48.182Z,19.40
2023-04-06T11:08:25.407Z,18.00
2023-04-06T11:10:53.444Z,18.00
2023-04-06T11:13:21.384Z,17.40
2023-04-06T11:15:51.690Z,17.60
2023-04-06T11:18:20.617Z,17.40
2023-04-06T11:20:50.345Z,18.40
2023-04-06T11:23:25.804Z,17.70
2023-04-06T11:25:54.208Z,17.30
2023-04-06T11:28:23.593Z,16.50
2023-04-06T11:30:53.982Z,15.80
2023-04-06T11:33:24.063Z,16.30
2023-04-06T11:35:52.276Z,16.50
2023-04-06T11:38:21.855Z,18.70
2023-04-06T11:40:55.347Z,19.70
2023-04-06T11:43:27.801Z,19.40
2023-04-06T11:46:04.121Z,20.40
2023-04-06T11:48:32.795Z,21.20
2023-04-06T11:51:02.275Z,21.60
2023-04-06T11:53:30.895Z,21.40
2023-04-06T11:56:00.588Z,21.80
2023-04-06T11:58:28.786Z,22.20
2023-04-06T12:01:06.871Z,19.80
2023-04-06T12:03:34.944Z,18.30
2023-04-06T12:06:03.834Z,17.10
2023-04-06T12:08:31.761Z,16.20
2023-04-06T12:11:00.375Z,15.80
2023-04-06T12:13:28.443Z,14.90
2023-04-06T12:15:56.388Z,15.10
2023-04-06T12:18:26.269Z,14.80
2023-04-06T12:20:54.371Z,14.60
2023-04-06T12:23:22.327Z,13.90
2023-04-06T12:25:50.654Z,14.10
2023-04-06T12:28:19.030Z,14.00
2023-04-06T12:30:46.892Z,13.90
2023-04-06T12:33:14.877Z,14.10
2023-04-06T12:35:44.255Z,14.30
2023-04-06T12:38:12.309Z,14.60
2023-04-06T12:40:40.858Z,14.50
2023-04-06T12:43:09.739Z,14.50
2023-04-06T12:45:37.681Z,14.40
2023-04-06T12:48:05.794Z,14.80
2023-04-06T12:50:33.743Z,14.40
2023-04-06T12:53:03.021Z,15.20
2023-04-06T12:55:35.059Z,14.80
2023-04-06T12:58:03.094Z,14.90
2023-04-06T13:00:32.249Z,15.10
2023-04-06T13:03:00.598Z,15.00
2023-04-06T13:05:29.890Z,14.70
2023-04-06T13:07:58.740Z,14.40
2023-04-06T13:10:28.807Z,14.70
2023-04-06T13:12:56.950Z,15.00
2023-04-06T13:15:24.998Z,14.90
2023-04-06T13:17:54.388Z,14.80
2023-04-06T13:20:25.450Z,14.70
2023-04-06T13:22:53.408Z,13.50
2023-04-06T13:25:21.361Z,14.30
2023-04-06T13:27:50.847Z,14.50
2023-04-06T13:30:19.403Z,15.00
2023-04-06T13:32:47.350Z,15.10
2023-04-06T13:35:15.753Z,15.10
2023-04-06T13:37:43.679Z,14.90
2023-04-06T13:40:12.609Z,15.00
2023-04-06T13:42:41.815Z,15.10
2023-04-06T13:45:12.301Z,15.00
2023-04-06T13:47:40.553Z,15.10
2023-04-06T13:50:09.516Z,15.00
2023-04-06T13:52:37.987Z,14.50
2023-04-06T13:55:06.865Z,14.70
2023-04-06T13:57:34.799Z,15.00
2023-04-06T14:00:05.107Z,14.90
2023-04-06T14:02:36.840Z,15.30
2023-04-06T14:05:05.258Z,15.60
2023-04-06T14:07:33.291Z,15.50
2023-04-06T14:10:01.734Z,15.10
2023-04-06T14:12:29.879Z,14.80
2023-04-06T14:14:57.798Z,14.60
2023-04-06T14:17:25.803Z,14.50
2023-04-06T14:19:55.116Z,14.70
2023-04-06T14:22:23.004Z,14.50
2023-04-06T14:24:50.861Z,14.40
2023-04-06T14:27:18.776Z,14.60
2023-04-06T14:29:46.802Z,14.70
2023-04-06T14:32:14.783Z,14.50
2023-04-06T14:34:42.673Z,14.30
2023-04-06T14:37:12.016Z,14.30
2023-04-06T14:39:39.888Z,14.20
2023-04-06T14:42:07.795Z,14.80
2023-04-06T14:44:37.581Z,15.00
2023-04-06T14:47:06.436Z,15.00
2023-04-06T14:49:34.918Z,14.80
2023-04-06T14:52:02.848Z,14.30
2023-04-06T14:54:32.392Z,14.10
2023-04-06T14:57:01.529Z,13.90
2023-04-06T15:02:04.085Z,13.80
2023-04-06T15:04:32.569Z,13.80
2023-04-06T15:07:00.657Z,13.80
2023-04-06T15:09:28.529Z,13.90
2023-04-06T15:11:57.961Z,14.10
2023-04-06T15:14:26.102Z,14.10
2023-04-06T15:16:54.082Z,13.80
2023-04-06T15:19:21.968Z,13.20
2023-04-06T15:21:49.811Z,12.80
2023-04-06T15:24:17.747Z,12.50
2023-04-06T15:26:46.545Z,12.40
2023-04-06T15:29:15.904Z,12.30
2023-04-06T15:31:44.038Z,12.30
2023-04-06T15:34:12.104Z,12.50
2023-04-06T15:36:40.016Z,13.00
2023-04-06T15:39:09.860Z,13.20
2023-04-06T15:41:38.478Z,13.30
2023-04-06T15:44:06.803Z,13.30
2023-04-06T15:46:38.258Z,13.20
2023-04-06T15:49:06.182Z,12.90
2023-04-06T15:51:34.063Z,12.90
2023-04-06T15:54:01.927Z,12.70
2023-04-06T15:56:29.863Z,12.50
2023-04-06T15:58:57.799Z,12.60
2023-04-06T16:01:25.894Z,12.40
2023-04-06T16:03:55.257Z,12.30
2023-04-06T16:06:23.238Z,12.30
2023-04-06T16:08:52.286Z,12.40
2023-04-06T16:11:21.301Z,12.40
2023-04-06T16:13:55.059Z,12.50
2023-04-06T16:16:23.713Z,12.40
2023-04-06T16:18:51.706Z,12.40
2023-04-06T16:21:21.165Z,12.30
2023-04-06T16:23:49.126Z,12.20
2023-04-06T16:26:21.186Z,12.00
2023-04-06T16:28:51.376Z,11.80
2023-04-06T16:31:23.949Z,11.60
2023-04-06T16:33:54.383Z,11.70
2023-04-06T16:36:27.892Z,11.70
2023-04-06T16:38:56.528Z,11.60
2023-04-06T16:41:24.616Z,11.50
2023-04-06T16:43:53.169Z,11.40
2023-04-06T16:46:21.767Z,11.30
2023-04-06T16:48:49.668Z,11.20
2023-04-06T16:51:18.775Z,11.10
2023-04-06T16:53:48.782Z,11.10
2023-04-06T16:56:16.758Z,11.10
2023-04-06T16:58:45.321Z,11.00
2023-04-06T17:01:20.452Z,10.90
2023-04-06T17:03:48.940Z,10.80
2023-04-06T17:06:17.333Z,10.70
2023-04-06T17:08:47.052Z,10.60
2023-04-06T17:11:20.569Z,10.40
2023-04-06T17:13:51.690Z,10.40
2023-04-06T17:16:20.907Z,10.30
2023-04-06T17:18:48.991Z,10.20
2023-04-06T17:21:17.148Z,10.10
2023-04-06T17:23:46.498Z,10.10
2023-04-06T17:26:16.132Z,10.00
2023-04-06T17:28:44.275Z,9.90
2023-04-06T17:31:13.098Z,9.80
2023-04-06T17:33:42.065Z,9.70
2023-04-06T17:36:12.028Z,9.60
2023-04-06T17:38:43.884Z,9.50
2023-04-06T17:41:12.509Z,9.40
2023-04-06T17:43:42.610Z,9.30
2023-04-06T17:46:10.811Z,9.20
2023-04-06T17:48:39.160Z,9.20
2023-04-06T17:51:07.313Z,9.00
2023-04-06T17:53:36.798Z,8.90
2023-04-06T17:56:05.357Z,8.80
2023-04-06T17:58:33.788Z,8.60
2023-04-06T18:01:07.082Z,8.50
2023-04-06T18:03:35.189Z,8.40
2023-04-06T18:06:11.056Z,8.40
2023-04-06T18:08:38.983Z,8.30
2023-04-06T18:11:06.882Z,8.30
2023-04-06T18:13:36.199Z,8.20
2023-04-06T18:16:08.010Z,8.10
2023-04-06T18:18:36.084Z,8.00
2023-04-06T18:21:05.421Z,7.90
2023-04-06T18:23:34.231Z,7.80
2023-04-06T18:26:02.496Z,7.60
2023-04-06T18:28:31.197Z,7.50
2023-04-06T18:30:59.532Z,7.30
2023-04-06T18:33:28.763Z,7.20
2023-04-06T18:35:57.378Z,7.20
2023-04-06T18:38:25.324Z,7.10
2023-04-06T18:40:53.557Z,7.00
2023-04-06T18:43:21.932Z,7.00
2023-04-06T18:45:49.802Z,6.90
2023-04-06T18:48:17.808Z,6.80
2023-04-06T18:50:54.536Z,6.50
2023-04-06T18:53:22.571Z,6.40
2023-04-06T18:55:51.503Z,6.30
2023-04-06T18:58:19.411Z,6.20
2023-04-06T19:00:47.499Z,6.10
2023-04-06T19:03:15.620Z,6.10
2023-04-06T19:05:43.750Z,6.10
2023-04-06T19:08:13.104Z,6.00
2023-04-06T19:10:41.002Z,5.80
2023-04-06T19:13:09.443Z,5.60
2023-04-06T19:15:37.423Z,5.50
2023-04-06T19:18:05.695Z,5.40
2023-04-06T19:20:35.261Z,5.30
2023-04-06T19:23:03.885Z,5.20
2023-04-06T19:25:33.211Z,5.10
2023-04-06T19:28:01.580Z,5.10
2023-04-06T19:30:29.510Z,5.10
2023-04-06T19:32:57.544Z,5.10
2023-04-06T19:35:25.798Z,5.00
2023-04-06T19:37:53.685Z,5.00
2023-04-06T19:40:21.579Z,5.00
2023-04-06T19:42:51.175Z,4.90
2023-04-06T19:45:19.103Z,4.80
2023-04-06T19:47:47.384Z,4.80
2023-04-06T19:50:15.519Z,4.80
2023-04-06T19:52:43.434Z,4.70
2023-04-06T19:55:11.633Z,4.80
2023-04-06T19:57:39.887Z,4.80
2023-04-06T20:00:11.150Z,4.70
2023-04-06T20:02:40.003Z,4.70
2023-04-06T20:05:08.612Z,4.60
2023-04-06T20:07:38.936Z,4.50
2023-04-06T20:10:09.246Z,4.40
2023-04-06T20:12:37.190Z,4.40
2023-04-06T20:15:05.861Z,4.30
2023-04-06T20:17:35.241Z,4.30
2023-04-06T20:20:03.716Z,4.40
2023-04-06T20:22:31.692Z,4.40
2023-04-06T20:24:59.705Z,4.30
2023-04-06T20:27:27.642Z,4.10
2023-04-06T20:29:55.833Z,4.00
2023-04-06T20:32:24.694Z,4.00
2023-04-06T20:34:54.470Z,3.90
2023-04-06T20:37:22.401Z,3.90
2023-04-06T20:39:50.535Z,3.80
2023-04-06T20:42:18.930Z,4.00
2023-04-06T20:44:46.846Z,4.10
2023-04-06T20:47:14.945Z,4.20
2023-04-06T20:49:42.848Z,4.20
2023-04-06T20:52:13.808Z,4.10
2023-04-06T20:54:41.731Z,4.00
2023-04-06T20:57:09.905Z,3.80
2023-04-06T20:59:38.031Z,3.80
2023-04-06T21:02:06.132Z,3.70
2023-04-06T21:04:35.437Z,3.50
2023-04-06T21:07:05.417Z,3.50
2023-04-06T21:09:35.674Z,3.40
2023-04-06T21:12:03.764Z,3.40
2023-04-06T21:14:31.849Z,3.40
2023-04-06T21:17:00.783Z,3.40
2023-04-06T21:19:28.781Z,3.30
2023-04-06T21:21:56.719Z,3.30
2023-04-06T21:24:24.666Z,3.20
2023-04-06T21:26:53.930Z,3.20
2023-04-06T21:29:22.483Z,3.20
2023-04-06T21:31:50.431Z,3.20
2023-04-06T21:34:18.653Z,3.10
2023-04-06T21:36:46.739Z,3.10
2023-04-06T21:39:14.641Z,3.10
2023-04-06T21:41:42.547Z,3.20
2023-04-06T21:44:11.905Z,3.20
2023-04-06T21:46:39.846Z,3.40
2023-04-06T21:49:07.783Z,3.30
2023-04-06T21:51:35.793Z,3.20
2023-04-06T21:54:03.687Z,3.20
2023-04-06T21:56:31.592Z,3.20
2023-04-06T21:58:59.748Z,3.30
2023-04-06T22:01:29.150Z,3.30
2023-04-06T22:03:57.356Z,3.40
2023-04-06T22:06:25.808Z,3.30
2023-04-06T22:08:53.827Z,3.30
2023-04-06T22:11:21.803Z,3.40
2023-04-06T22:13:49.989Z,3.50
2023-04-06T22:16:18.544Z,3.40
2023-04-06T22:18:48.157Z,3.40
2023-04-06T22:21:16.053Z,3.30
2023-04-06T22:23:44.002Z,3.40
2023-04-06T22:26:12.711Z,3.40
2023-04-06T22:28:40.647Z,3.40
2023-04-06T22:31:08.534Z,3.50
2023-04-06T22:33:36.412Z,3.50
2023-04-06T22:36:06.339Z,3.60
2023-04-06T22:38:34.196Z,3.60
2023-04-06T22:41:02.166Z,3.70
2023-04-06T22:43:30.123Z,3.70
2023-04-06T22:45:58.532Z,3.70
2023-04-06T22:48:26.555Z,3.70
2023-04-06T22:50:54.524Z,3.60
2023-04-06T22:53:23.755Z,3.60
2023-04-06T22:55:51.657Z,3.60
2023-04-06T22:58:19.539Z,3.60
2023-04-06T23:00:47.517Z,3.60
2023-04-06T23:03:15.681Z,3.70
2023-04-06T23:05:45.087Z,3.70
2023-04-06T23:08:12.954Z,3.70
2023-04-06T23:10:42.667Z,3.70
2023-04-06T23:13:11.396Z,3.70
2023-04-06T23:15:39.366Z,3.70
2023-04-06T23:18:07.374Z,3.70
2023-04-06T23:20:35.321Z,3.70
2023-04-06T23:23:03.236Z,3.70
2023-04-06T23:25:31.361Z,3.80
2023-04-06T23:28:00.531Z,3.80
2023-04-06T23:30:28.474Z,3.80
2023-04-06T23:32:56.430Z,3.80
2023-04-06T23:35:24.365Z,3.80
2023-04-06T23:37:52.274Z,3.80
2023-04-06T23:40:20.626Z,3.80
2023-04-06T23:42:48.512Z,3.80
2023-04-06T23:45:17.841Z,3.90
2023-04-06T23:47:46.784Z,3.90
2023-04-06T23:50:14.762Z,3.90
2023-04-06T23:52:42.663Z,3.80
2023-04-06T23:55:11.266Z,3.90
2023-04-06T23:57:39.120Z,3.80
